sensor_id;sensor_type;location;lat;lon;timestamp;temperature;humidity
4530;DHT22;2277;51.626;7.516;2022-11-30T00:00:53;10.30;99.90
4530;DHT22;2277;51.626;7.516;2022-11-30T00:03:19;10.30;99.90
4530;DHT22;2277;51.626;7.516;2022-11-30T00:05:45;10.30;99.90
4530;DHT22;2277;51.626;7.516;2022-11-30T00:08:10;10.30;99.90
4530;DHT22;2277;51.626;7.516;2022-11-30T00:10:39;10.30;99.90
4530;DHT22;2277;51.626;7.516;2022-11-30T00:13:05;10.30;99.90
4530;DHT22;2277;51.626;7.516;2022-11-30T00:15:31;10.30;99.90
4530;DHT22;2277;51.626;7.516;2022-11-30T00:17:57;10.30;99.90
4530;DHT22;2277;51.626;7.516;2022-11-30T00:20:23;10.30;99.90
4530;DHT22;2277;51.626;7.516;2022-11-30T00:22:49;10.30;99.90
4530;DHT22;2277;51.626;7.516;2022-11-30T00:25:15;10.40;99.90
4530;DHT22;2277;51.626;7.516;2022-11-30T00:27:40;10.30;99.90
4530;DHT22;2277;51.626;7.516;2022-11-30T00:30:06;10.30;99.90
4530;DHT22;2277;51.626;7.516;2022-11-30T00:32:32;10.30;99.90
4530;DHT22;2277;51.626;7.516;2022-11-30T00:34:58;10.30;99.90
4530;DHT22;2277;51.626;7.516;2022-11-30T00:37:24;10.30;99.90
4530;DHT22;2277;51.626;7.516;2022-11-30T00:39:49;10.30;99.90
4530;DHT22;2277;51.626;7.516;2022-11-30T00:42:15;10.30;99.90
4530;DHT22;2277;51.626;7.516;2022-11-30T00:44:41;10.30;99.90
4530;DHT22;2277;51.626;7.516;2022-11-30T00:47:06;10.30;99.90
4530;DHT22;2277;51.626;7.516;2022-11-30T00:49:32;10.30;99.90
4530;DHT22;2277;51.626;7.516;2022-11-30T00:51:59;10.30;99.90
4530;DHT22;2277;51.626;7.516;2022-11-30T00:54:24;10.30;99.90
4530;DHT22;2277;51.626;7.516;2022-11-30T00:56:50;10.30;99.90
4530;DHT22;2277;51.626;7.516;2022-11-30T00:59:16;10.30;99.90
4530;DHT22;2277;51.626;7.516;2022-11-30T01:01:41;10.30;99.90
4530;DHT22;2277;51.626;7.516;2022-11-30T01:04:07;10.20;99.90
4530;DHT22;2277;51.626;7.516;2022-11-30T01:06:32;10.20;99.90
4530;DHT22;2277;51.626;7.516;2022-11-30T01:08:58;10.20;99.90
4530;DHT22;2277;51.626;7.516;2022-11-30T01:11:26;10.20;99.90
4530;DHT22;2277;51.626;7.516;2022-11-30T01:13:53;10.10;99.90
4530;DHT22;2277;51.626;7.516;2022-11-30T01:16:23;10.10;99.90
4530;DHT22;2277;51.626;7.516;2022-11-30T01:18:49;10.10;99.90
4530;DHT22;2277;51.626;7.516;2022-11-30T01:21:21;10.10;99.90
4530;DHT22;2277;51.626;7.516;2022-11-30T01:23:47;10.10;99.90
4530;DHT22;2277;51.626;7.516;2022-11-30T01:26:13;10.10;99.90
4530;DHT22;2277;51.626;7.516;2022-11-30T01:28:39;10.10;99.90
4530;DHT22;2277;51.626;7.516;2022-11-30T01:31:08;10.10;99.90
4530;DHT22;2277;51.626;7.516;2022-11-30T01:33:34;10.10;99.90
4530;DHT22;2277;51.626;7.516;2022-11-30T01:36:07;10.00;99.90
4530;DHT22;2277;51.626;7.516;2022-11-30T01:38:45;9.90;99.90
4530;DHT22;2277;51.626;7.516;2022-11-30T01:41:16;9.80;99.90
4530;DHT22;2277;51.626;7.516;2022-11-30T01:43:47;9.80;99.90
4530;DHT22;2277;51.626;7.516;2022-11-30T01:51:45;9.80;99.90
4530;DHT22;2277;51.626;7.516;2022-11-30T01:54:15;9.80;99.90
4530;DHT22;2277;51.626;7.516;2022-11-30T01:56:49;9.80;99.90
4530;DHT22;2277;51.626;7.516;2022-11-30T01:59:19;9.80;99.90
4530;DHT22;2277;51.626;7.516;2022-11-30T02:01:46;9.80;99.90
4530;DHT22;2277;51.626;7.516;2022-11-30T02:04:25;9.80;99.90
4530;DHT22;2277;51.626;7.516;2022-11-30T02:06:52;9.80;99.90
4530;DHT22;2277;51.626;7.516;2022-11-30T02:09:19;9.80;99.90
4530;DHT22;2277;51.626;7.516;2022-11-30T02:11:47;9.70;99.90
4530;DHT22;2277;51.626;7.516;2022-11-30T02:16:45;9.70;99.90
4530;DHT22;2277;51.626;7.516;2022-11-30T02:30:09;9.60;99.90
4530;DHT22;2277;51.626;7.516;2022-11-30T02:33:03;9.60;99.90
4530;DHT22;2277;51.626;7.516;2022-11-30T02:35:35;9.60;99.90
4530;DHT22;2277;51.626;7.516;2022-11-30T02:38:02;9.60;99.90
4530;DHT22;2277;51.626;7.516;2022-11-30T02:40:29;9.50;99.90
4530;DHT22;2277;51.626;7.516;2022-11-30T02:42:57;9.50;99.90
4530;DHT22;2277;51.626;7.516;2022-11-30T02:48:31;9.50;99.90
4530;DHT22;2277;51.626;7.516;2022-11-30T02:51:01;9.40;99.90
4530;DHT22;2277;51.626;7.516;2022-11-30T02:53:29;9.40;99.90
4530;DHT22;2277;51.626;7.516;2022-11-30T02:55:54;9.40;99.90
4530;DHT22;2277;51.626;7.516;2022-11-30T02:58:21;9.40;99.90
4530;DHT22;2277;51.626;7.516;2022-11-30T03:00:46;9.30;99.90
4530;DHT22;2277;51.626;7.516;2022-11-30T03:03:12;9.30;99.90
4530;DHT22;2277;51.626;7.516;2022-11-30T03:05:38;9.30;99.90
4530;DHT22;2277;51.626;7.516;2022-11-30T03:08:04;9.30;99.90
4530;DHT22;2277;51.626;7.516;2022-11-30T03:10:29;9.30;99.90
4530;DHT22;2277;51.626;7.516;2022-11-30T03:12:58;9.30;99.90
4530;DHT22;2277;51.626;7.516;2022-11-30T03:15:25;9.30;99.90
4530;DHT22;2277;51.626;7.516;2022-11-30T03:17:50;9.30;99.90
4530;DHT22;2277;51.626;7.516;2022-11-30T03:20:16;9.30;99.90
4530;DHT22;2277;51.626;7.516;2022-11-30T03:22:42;9.30;99.90
4530;DHT22;2277;51.626;7.516;2022-11-30T03:25:07;9.30;99.90
4530;DHT22;2277;51.626;7.516;2022-11-30T03:27:33;9.30;99.90
4530;DHT22;2277;51.626;7.516;2022-11-30T03:29:59;9.30;99.90
4530;DHT22;2277;51.626;7.516;2022-11-30T03:32:25;9.30;99.90
4530;DHT22;2277;51.626;7.516;2022-11-30T03:34:50;9.20;99.90
4530;DHT22;2277;51.626;7.516;2022-11-30T03:37:16;9.20;99.90
4530;DHT22;2277;51.626;7.516;2022-11-30T03:39:41;9.20;99.90
4530;DHT22;2277;51.626;7.516;2022-11-30T03:42:07;9.20;99.90
4530;DHT22;2277;51.626;7.516;2022-11-30T03:44:33;9.20;99.90
4530;DHT22;2277;51.626;7.516;2022-11-30T03:46:58;9.20;99.90
4530;DHT22;2277;51.626;7.516;2022-11-30T03:49:24;9.20;99.90
4530;DHT22;2277;51.626;7.516;2022-11-30T03:51:49;9.20;99.90
4530;DHT22;2277;51.626;7.516;2022-11-30T03:54:15;9.20;99.90
4530;DHT22;2277;51.626;7.516;2022-11-30T03:56:40;9.30;99.90
4530;DHT22;2277;51.626;7.516;2022-11-30T03:59:06;9.30;99.90
4530;DHT22;2277;51.626;7.516;2022-11-30T04:01:31;9.20;99.90
4530;DHT22;2277;51.626;7.516;2022-11-30T04:03:57;9.20;99.90
4530;DHT22;2277;51.626;7.516;2022-11-30T04:06:23;9.20;99.90
4530;DHT22;2277;51.626;7.516;2022-11-30T04:08:49;9.20;99.90
4530;DHT22;2277;51.626;7.516;2022-11-30T04:11:15;9.20;99.90
4530;DHT22;2277;51.626;7.516;2022-11-30T04:13:41;9.20;99.90
4530;DHT22;2277;51.626;7.516;2022-11-30T04:16:07;9.20;99.90
4530;DHT22;2277;51.626;7.516;2022-11-30T04:18:35;9.20;99.90
4530;DHT22;2277;51.626;7.516;2022-11-30T04:21:01;9.30;99.90
4530;DHT22;2277;51.626;7.516;2022-11-30T04:23:33;9.30;99.90
4530;DHT22;2277;51.626;7.516;2022-11-30T04:26:02;9.30;99.90
4530;DHT22;2277;51.626;7.516;2022-11-30T04:28:28;9.20;99.90
4530;DHT22;2277;51.626;7.516;2022-11-30T04:30:54;9.20;99.90
4530;DHT22;2277;51.626;7.516;2022-11-30T04:33:20;9.20;99.90
4530;DHT22;2277;51.626;7.516;2022-11-30T04:35:50;9.20;99.90
4530;DHT22;2277;51.626;7.516;2022-11-30T04:38:17;9.20;99.90
4530;DHT22;2277;51.626;7.516;2022-11-30T04:40:42;9.20;99.90
4530;DHT22;2277;51.626;7.516;2022-11-30T04:43:09;9.20;99.90
4530;DHT22;2277;51.626;7.516;2022-11-30T04:45:36;9.20;99.90
4530;DHT22;2277;51.626;7.516;2022-11-30T04:48:02;9.20;99.90
4530;DHT22;2277;51.626;7.516;2022-11-30T04:50:28;9.20;99.90
4530;DHT22;2277;51.626;7.516;2022-11-30T04:52:53;9.20;99.90
4530;DHT22;2277;51.626;7.516;2022-11-30T04:55:19;9.20;99.90
4530;DHT22;2277;51.626;7.516;2022-11-30T04:57:46;9.20;99.90
4530;DHT22;2277;51.626;7.516;2022-11-30T05:00:13;9.20;99.90
4530;DHT22;2277;51.626;7.516;2022-11-30T05:02:39;9.20;99.90
4530;DHT22;2277;51.626;7.516;2022-11-30T05:05:05;9.20;99.90
4530;DHT22;2277;51.626;7.516;2022-11-30T05:07:31;9.20;99.90
4530;DHT22;2277;51.626;7.516;2022-11-30T05:09:57;9.20;99.90
4530;DHT22;2277;51.626;7.516;2022-11-30T05:12:22;9.20;99.90
4530;DHT22;2277;51.626;7.516;2022-11-30T05:14:48;9.20;99.90
4530;DHT22;2277;51.626;7.516;2022-11-30T05:17:13;9.20;99.90
4530;DHT22;2277;51.626;7.516;2022-11-30T05:19:39;9.20;99.90
4530;DHT22;2277;51.626;7.516;2022-11-30T05:22:04;9.20;99.90
4530;DHT22;2277;51.626;7.516;2022-11-30T05:24:30;9.20;99.90
4530;DHT22;2277;51.626;7.516;2022-11-30T05:26:56;9.20;99.90
4530;DHT22;2277;51.626;7.516;2022-11-30T05:29:21;9.20;99.90
4530;DHT22;2277;51.626;7.516;2022-11-30T05:31:47;9.20;99.90
4530;DHT22;2277;51.626;7.516;2022-11-30T05:34:13;9.20;99.90
4530;DHT22;2277;51.626;7.516;2022-11-30T05:36:39;9.20;99.90
4530;DHT22;2277;51.626;7.516;2022-11-30T05:39:05;9.20;99.90
4530;DHT22;2277;51.626;7.516;2022-11-30T05:41:30;9.20;99.90
4530;DHT22;2277;51.626;7.516;2022-11-30T05:43:56;9.20;99.90
4530;DHT22;2277;51.626;7.516;2022-11-30T05:46:22;9.30;99.90
4530;DHT22;2277;51.626;7.516;2022-11-30T05:48:48;9.20;99.90
4530;DHT22;2277;51.626;7.516;2022-11-30T05:51:16;9.30;99.90
4530;DHT22;2277;51.626;7.516;2022-11-30T05:53:45;9.30;99.90
4530;DHT22;2277;51.626;7.516;2022-11-30T05:56:13;9.20;99.90
4530;DHT22;2277;51.626;7.516;2022-11-30T05:58:39;9.30;99.90
4530;DHT22;2277;51.626;7.516;2022-11-30T06:01:06;9.30;99.90
4530;DHT22;2277;51.626;7.516;2022-11-30T06:03:33;9.20;99.90
4530;DHT22;2277;51.626;7.516;2022-11-30T06:05:59;9.20;99.90
4530;DHT22;2277;51.626;7.516;2022-11-30T06:08:25;9.20;99.90
4530;DHT22;2277;51.626;7.516;2022-11-30T06:10:50;9.20;99.90
4530;DHT22;2277;51.626;7.516;2022-11-30T06:13:16;9.20;99.90
4530;DHT22;2277;51.626;7.516;2022-11-30T06:15:42;9.20;99.90
4530;DHT22;2277;51.626;7.516;2022-11-30T06:18:10;9.20;99.90
4530;DHT22;2277;51.626;7.516;2022-11-30T06:20:36;9.20;99.90
4530;DHT22;2277;51.626;7.516;2022-11-30T06:23:02;9.20;99.90
4530;DHT22;2277;51.626;7.516;2022-11-30T06:25:27;9.20;99.90
4530;DHT22;2277;51.626;7.516;2022-11-30T06:27:53;9.20;99.90
4530;DHT22;2277;51.626;7.516;2022-11-30T06:30:19;9.20;99.90
4530;DHT22;2277;51.626;7.516;2022-11-30T06:32:49;9.20;99.90
4530;DHT22;2277;51.626;7.516;2022-11-30T06:35:15;9.20;99.90
4530;DHT22;2277;51.626;7.516;2022-11-30T06:37:40;9.20;99.90
4530;DHT22;2277;51.626;7.516;2022-11-30T06:40:07;9.10;99.90
4530;DHT22;2277;51.626;7.516;2022-11-30T06:42:34;9.10;99.90
4530;DHT22;2277;51.626;7.516;2022-11-30T06:45:00;9.10;99.90
4530;DHT22;2277;51.626;7.516;2022-11-30T06:47:27;9.10;99.90
4530;DHT22;2277;51.626;7.516;2022-11-30T06:49:52;9.10;99.90
4530;DHT22;2277;51.626;7.516;2022-11-30T06:52:18;9.10;99.90
4530;DHT22;2277;51.626;7.516;2022-11-30T06:54:45;9.10;99.90
4530;DHT22;2277;51.626;7.516;2022-11-30T06:57:10;9.10;99.90
4530;DHT22;2277;51.626;7.516;2022-11-30T06:59:36;9.10;99.90
4530;DHT22;2277;51.626;7.516;2022-11-30T07:02:11;9.20;99.90
4530;DHT22;2277;51.626;7.516;2022-11-30T07:04:37;9.20;99.90
4530;DHT22;2277;51.626;7.516;2022-11-30T07:07:03;9.20;99.90
4530;DHT22;2277;51.626;7.516;2022-11-30T07:09:29;9.20;99.90
4530;DHT22;2277;51.626;7.516;2022-11-30T07:11:56;9.20;99.90
4530;DHT22;2277;51.626;7.516;2022-11-30T07:14:22;9.20;99.90
4530;DHT22;2277;51.626;7.516;2022-11-30T07:16:47;9.20;99.90
4530;DHT22;2277;51.626;7.516;2022-11-30T07:19:13;9.20;99.90
4530;DHT22;2277;51.626;7.516;2022-11-30T07:21:38;9.20;99.90
4530;DHT22;2277;51.626;7.516;2022-11-30T07:24:04;9.20;99.90
4530;DHT22;2277;51.626;7.516;2022-11-30T07:26:48;9.20;99.90
4530;DHT22;2277;51.626;7.516;2022-11-30T07:29:14;9.20;99.90
4530;DHT22;2277;51.626;7.516;2022-11-30T07:31:39;9.20;99.90
4530;DHT22;2277;51.626;7.516;2022-11-30T07:34:07;9.20;99.90
4530;DHT22;2277;51.626;7.516;2022-11-30T07:36:34;9.20;99.90
4530;DHT22;2277;51.626;7.516;2022-11-30T07:39:00;9.20;99.90
4530;DHT22;2277;51.626;7.516;2022-11-30T07:41:26;9.20;99.90
4530;DHT22;2277;51.626;7.516;2022-11-30T07:43:51;9.20;99.90
4530;DHT22;2277;51.626;7.516;2022-11-30T07:46:17;9.20;99.90
4530;DHT22;2277;51.626;7.516;2022-11-30T07:48:44;9.20;99.90
4530;DHT22;2277;51.626;7.516;2022-11-30T07:51:12;9.20;99.90
4530;DHT22;2277;51.626;7.516;2022-11-30T07:53:38;9.20;99.90
4530;DHT22;2277;51.626;7.516;2022-11-30T07:56:09;9.30;99.90
4530;DHT22;2277;51.626;7.516;2022-11-30T07:58:35;9.30;99.90
4530;DHT22;2277;51.626;7.516;2022-11-30T08:01:06;9.30;99.90
4530;DHT22;2277;51.626;7.516;2022-11-30T08:03:32;9.30;99.90
4530;DHT22;2277;51.626;7.516;2022-11-30T08:06:03;9.30;99.90
4530;DHT22;2277;51.626;7.516;2022-11-30T08:08:40;9.20;99.90
4530;DHT22;2277;51.626;7.516;2022-11-30T08:11:07;9.30;99.90
4530;DHT22;2277;51.626;7.516;2022-11-30T08:13:33;9.30;99.90
4530;DHT22;2277;51.626;7.516;2022-11-30T08:16:19;9.30;99.90
4530;DHT22;2277;51.626;7.516;2022-11-30T08:18:45;9.30;99.90
4530;DHT22;2277;51.626;7.516;2022-11-30T08:21:13;9.30;99.90
4530;DHT22;2277;51.626;7.516;2022-11-30T08:23:47;9.30;99.90
4530;DHT22;2277;51.626;7.516;2022-11-30T08:26:23;9.30;99.90
4530;DHT22;2277;51.626;7.516;2022-11-30T08:28:51;9.30;99.90
4530;DHT22;2277;51.626;7.516;2022-11-30T08:31:20;9.30;99.90
4530;DHT22;2277;51.626;7.516;2022-11-30T08:33:46;9.30;99.90
4530;DHT22;2277;51.626;7.516;2022-11-30T08:36:20;9.30;99.90
4530;DHT22;2277;51.626;7.516;2022-11-30T08:38:47;9.30;99.90
4530;DHT22;2277;51.626;7.516;2022-11-30T08:41:15;9.30;99.90
4530;DHT22;2277;51.626;7.516;2022-11-30T08:43:41;9.40;99.90
4530;DHT22;2277;51.626;7.516;2022-11-30T08:46:09;9.30;99.90
4530;DHT22;2277;51.626;7.516;2022-11-30T08:48:35;9.40;99.90
4530;DHT22;2277;51.626;7.516;2022-11-30T08:51:06;9.30;99.90
4530;DHT22;2277;51.626;7.516;2022-11-30T08:53:33;9.30;99.90
4530;DHT22;2277;51.626;7.516;2022-11-30T08:56:01;9.30;99.90
4530;DHT22;2277;51.626;7.516;2022-11-30T08:58:30;9.30;99.90
4530;DHT22;2277;51.626;7.516;2022-11-30T09:01:16;9.30;99.90
4530;DHT22;2277;51.626;7.516;2022-11-30T09:03:43;9.30;99.90
4530;DHT22;2277;51.626;7.516;2022-11-30T09:06:11;9.30;99.90
4530;DHT22;2277;51.626;7.516;2022-11-30T09:08:38;9.40;99.90
4530;DHT22;2277;51.626;7.516;2022-11-30T09:11:31;9.30;99.90
4530;DHT22;2277;51.626;7.516;2022-11-30T09:13:59;9.30;99.90
4530;DHT22;2277;51.626;7.516;2022-11-30T09:16:25;9.40;99.90
4530;DHT22;2277;51.626;7.516;2022-11-30T09:18:51;9.40;99.90
4530;DHT22;2277;51.626;7.516;2022-11-30T09:21:19;9.40;99.90
4530;DHT22;2277;51.626;7.516;2022-11-30T09:23:46;9.40;99.90
4530;DHT22;2277;51.626;7.516;2022-11-30T09:26:14;9.40;99.90
4530;DHT22;2277;51.626;7.516;2022-11-30T09:28:43;9.40;99.90
4530;DHT22;2277;51.626;7.516;2022-11-30T09:31:13;9.30;99.90
4530;DHT22;2277;51.626;7.516;2022-11-30T09:33:38;9.30;99.90
4530;DHT22;2277;51.626;7.516;2022-11-30T09:36:06;9.30;99.90
4530;DHT22;2277;51.626;7.516;2022-11-30T09:38:32;9.40;99.90
4530;DHT22;2277;51.626;7.516;2022-11-30T09:41:00;9.30;99.90
4530;DHT22;2277;51.626;7.516;2022-11-30T09:46:05;9.30;99.90
4530;DHT22;2277;51.626;7.516;2022-11-30T09:51:18;9.40;99.90
4530;DHT22;2277;51.626;7.516;2022-11-30T09:53:50;9.40;99.90
4530;DHT22;2277;51.626;7.516;2022-11-30T09:56:23;9.40;99.90
4530;DHT22;2277;51.626;7.516;2022-11-30T09:58:59;9.40;99.90
4530;DHT22;2277;51.626;7.516;2022-11-30T10:01:25;9.40;99.90
4530;DHT22;2277;51.626;7.516;2022-11-30T10:03:50;9.40;99.90
4530;DHT22;2277;51.626;7.516;2022-11-30T10:06:29;9.30;99.90
4530;DHT22;2277;51.626;7.516;2022-11-30T10:11:44;9.40;99.90
4530;DHT22;2277;51.626;7.516;2022-11-30T10:26:06;9.40;99.90
4530;DHT22;2277;51.626;7.516;2022-11-30T10:28:52;9.40;99.90
4530;DHT22;2277;51.626;7.516;2022-11-30T10:31:32;9.40;99.90
4530;DHT22;2277;51.626;7.516;2022-11-30T10:34:09;9.30;99.90
4530;DHT22;2277;51.626;7.516;2022-11-30T10:36:40;9.30;99.90
4530;DHT22;2277;51.626;7.516;2022-11-30T10:39:19;9.30;99.90
4530;DHT22;2277;51.626;7.516;2022-11-30T10:42:00;9.30;99.90
4530;DHT22;2277;51.626;7.516;2022-11-30T10:44:34;9.30;99.90
4530;DHT22;2277;51.626;7.516;2022-11-30T10:47:14;9.30;99.90
4530;DHT22;2277;51.626;7.516;2022-11-30T10:49:47;9.30;99.90
4530;DHT22;2277;51.626;7.516;2022-11-30T10:52:20;9.30;99.90
4530;DHT22;2277;51.626;7.516;2022-11-30T10:54:48;9.30;99.90
4530;DHT22;2277;51.626;7.516;2022-11-30T10:57:14;9.30;99.90
4530;DHT22;2277;51.626;7.516;2022-11-30T10:59:44;9.30;99.90
4530;DHT22;2277;51.626;7.516;2022-11-30T11:02:49;9.30;99.90
4530;DHT22;2277;51.626;7.516;2022-11-30T11:05:29;9.30;99.90
4530;DHT22;2277;51.626;7.516;2022-11-30T11:08:17;9.30;99.90
4530;DHT22;2277;51.626;7.516;2022-11-30T11:10:45;9.30;99.90
4530;DHT22;2277;51.626;7.516;2022-11-30T11:13:40;9.30;99.90
4530;DHT22;2277;51.626;7.516;2022-11-30T11:16:08;9.30;99.90
4530;DHT22;2277;51.626;7.516;2022-11-30T11:18:35;9.30;99.90
4530;DHT22;2277;51.626;7.516;2022-11-30T11:21:21;9.30;99.90
4530;DHT22;2277;51.626;7.516;2022-11-30T11:23:50;9.30;99.90
4530;DHT22;2277;51.626;7.516;2022-11-30T11:26:24;9.30;99.90
4530;DHT22;2277;51.626;7.516;2022-11-30T11:28:52;9.30;99.90
4530;DHT22;2277;51.626;7.516;2022-11-30T11:33:57;9.30;99.90
4530;DHT22;2277;51.626;7.516;2022-11-30T11:36:28;9.40;99.90
4530;DHT22;2277;51.626;7.516;2022-11-30T11:38:54;9.40;99.90
4530;DHT22;2277;51.626;7.516;2022-11-30T11:44:19;9.40;99.90
4530;DHT22;2277;51.626;7.516;2022-11-30T11:47:01;9.40;99.90
4530;DHT22;2277;51.626;7.516;2022-11-30T11:49:30;9.40;99.90
4530;DHT22;2277;51.626;7.516;2022-11-30T11:57:15;9.40;99.90
4530;DHT22;2277;51.626;7.516;2022-11-30T12:00:04;9.40;99.90
4530;DHT22;2277;51.626;7.516;2022-11-30T12:02:39;9.40;99.90
4530;DHT22;2277;51.626;7.516;2022-11-30T12:05:35;9.40;99.90
4530;DHT22;2277;51.626;7.516;2022-11-30T12:08:14;9.50;99.90
4530;DHT22;2277;51.626;7.516;2022-11-30T12:10:55;9.40;99.90
4530;DHT22;2277;51.626;7.516;2022-11-30T12:19:16;9.40;99.90
4530;DHT22;2277;51.626;7.516;2022-11-30T12:21:36;9.40;99.90
4530;DHT22;2277;51.626;7.516;2022-11-30T12:26:42;9.40;99.90
4530;DHT22;2277;51.626;7.516;2022-11-30T12:29:22;9.40;99.90
4530;DHT22;2277;51.626;7.516;2022-11-30T12:31:54;9.40;99.90
4530;DHT22;2277;51.626;7.516;2022-11-30T12:42:30;9.40;99.90
4530;DHT22;2277;51.626;7.516;2022-11-30T12:45:03;9.40;99.90
4530;DHT22;2277;51.626;7.516;2022-11-30T12:56:03;9.40;99.90
4530;DHT22;2277;51.626;7.516;2022-11-30T13:04:15;9.40;99.90
4530;DHT22;2277;51.626;7.516;2022-11-30T13:06:49;9.40;99.90
4530;DHT22;2277;51.626;7.516;2022-11-30T13:09:30;9.40;99.90
4530;DHT22;2277;51.626;7.516;2022-11-30T13:12:03;9.40;99.90
4530;DHT22;2277;51.626;7.516;2022-11-30T13:14:31;9.40;99.90
4530;DHT22;2277;51.626;7.516;2022-11-30T13:17:04;9.40;99.90
4530;DHT22;2277;51.626;7.516;2022-11-30T13:25:31;9.40;99.90
4530;DHT22;2277;51.626;7.516;2022-11-30T13:30:43;9.40;99.90
4530;DHT22;2277;51.626;7.516;2022-11-30T13:36:20;9.40;99.90
4530;DHT22;2277;51.626;7.516;2022-11-30T13:41:45;9.40;99.90
4530;DHT22;2277;51.626;7.516;2022-11-30T13:44:31;9.30;99.90
4530;DHT22;2277;51.626;7.516;2022-11-30T13:46:58;9.30;99.90
4530;DHT22;2277;51.626;7.516;2022-11-30T13:49:32;9.30;99.90
4530;DHT22;2277;51.626;7.516;2022-11-30T13:52:03;9.30;99.90
4530;DHT22;2277;51.626;7.516;2022-11-30T13:54:46;9.20;99.90
4530;DHT22;2277;51.626;7.516;2022-11-30T13:59:57;9.20;99.90
4530;DHT22;2277;51.626;7.516;2022-11-30T14:10:33;9.20;99.90
4530;DHT22;2277;51.626;7.516;2022-11-30T14:26:20;9.10;99.90
4530;DHT22;2277;51.626;7.516;2022-11-30T14:28:59;9.10;99.90
4530;DHT22;2277;51.626;7.516;2022-11-30T14:31:30;9.10;99.90
4530;DHT22;2277;51.626;7.516;2022-11-30T14:34:08;9.10;99.90
4530;DHT22;2277;51.626;7.516;2022-11-30T14:36:39;9.10;99.90
4530;DHT22;2277;51.626;7.516;2022-11-30T14:39:33;9.10;99.90
4530;DHT22;2277;51.626;7.516;2022-11-30T14:41:59;9.10;99.90
4530;DHT22;2277;51.626;7.516;2022-11-30T14:44:25;9.10;99.90
4530;DHT22;2277;51.626;7.516;2022-11-30T14:46:51;9.00;99.90
4530;DHT22;2277;51.626;7.516;2022-11-30T14:49:19;9.00;99.90
4530;DHT22;2277;51.626;7.516;2022-11-30T14:52:09;9.00;99.90
4530;DHT22;2277;51.626;7.516;2022-11-30T14:59:54;9.00;99.90
4530;DHT22;2277;51.626;7.516;2022-11-30T15:04:52;9.00;99.90
4530;DHT22;2277;51.626;7.516;2022-11-30T15:07:19;9.00;99.90
4530;DHT22;2277;51.626;7.516;2022-11-30T15:09:47;9.00;99.90
4530;DHT22;2277;51.626;7.516;2022-11-30T15:12:18;9.00;99.90
4530;DHT22;2277;51.626;7.516;2022-11-30T15:15:25;9.00;99.90
4530;DHT22;2277;51.626;7.516;2022-11-30T15:18:05;9.00;99.90
4530;DHT22;2277;51.626;7.516;2022-11-30T15:20:48;9.00;99.90
4530;DHT22;2277;51.626;7.516;2022-11-30T15:23:15;9.00;99.90
4530;DHT22;2277;51.626;7.516;2022-11-30T15:25:47;8.90;99.90
4530;DHT22;2277;51.626;7.516;2022-11-30T15:28:25;9.00;99.90
4530;DHT22;2277;51.626;7.516;2022-11-30T15:30:55;8.90;99.90
4530;DHT22;2277;51.626;7.516;2022-11-30T15:33:24;9.00;99.90
4530;DHT22;2277;51.626;7.516;2022-11-30T15:35:53;9.00;99.90
4530;DHT22;2277;51.626;7.516;2022-11-30T15:38:23;9.00;99.90
4530;DHT22;2277;51.626;7.516;2022-11-30T15:40:50;9.00;99.90
4530;DHT22;2277;51.626;7.516;2022-11-30T15:43:23;8.90;99.90
4530;DHT22;2277;51.626;7.516;2022-11-30T15:45:57;8.90;99.90
4530;DHT22;2277;51.626;7.516;2022-11-30T15:48:28;8.90;99.90
4530;DHT22;2277;51.626;7.516;2022-11-30T15:50:54;8.90;99.90
4530;DHT22;2277;51.626;7.516;2022-11-30T15:53:33;8.90;99.90
4530;DHT22;2277;51.626;7.516;2022-11-30T15:56:04;8.90;99.90
4530;DHT22;2277;51.626;7.516;2022-11-30T15:58:40;8.90;99.90
4530;DHT22;2277;51.626;7.516;2022-11-30T16:01:20;8.90;99.90
4530;DHT22;2277;51.626;7.516;2022-11-30T16:06:26;8.90;99.90
4530;DHT22;2277;51.626;7.516;2022-11-30T16:08:54;8.90;99.90
4530;DHT22;2277;51.626;7.516;2022-11-30T16:11:20;8.90;99.90
4530;DHT22;2277;51.626;7.516;2022-11-30T16:13:46;8.90;99.90
4530;DHT22;2277;51.626;7.516;2022-11-30T16:16:15;8.90;99.90
4530;DHT22;2277;51.626;7.516;2022-11-30T16:18:43;8.90;99.90
4530;DHT22;2277;51.626;7.516;2022-11-30T16:21:11;8.90;99.90
4530;DHT22;2277;51.626;7.516;2022-11-30T16:23:37;8.90;99.90
4530;DHT22;2277;51.626;7.516;2022-11-30T16:26:02;8.90;99.90
4530;DHT22;2277;51.626;7.516;2022-11-30T16:28:28;8.80;99.90
4530;DHT22;2277;51.626;7.516;2022-11-30T16:30:55;8.90;99.90
4530;DHT22;2277;51.626;7.516;2022-11-30T16:33:24;8.90;99.90
4530;DHT22;2277;51.626;7.516;2022-11-30T16:36:07;8.90;99.90
4530;DHT22;2277;51.626;7.516;2022-11-30T16:38:33;8.90;99.90
4530;DHT22;2277;51.626;7.516;2022-11-30T16:41:17;8.80;99.90
4530;DHT22;2277;51.626;7.516;2022-11-30T16:43:45;8.80;99.90
4530;DHT22;2277;51.626;7.516;2022-11-30T16:46:13;8.80;99.90
4530;DHT22;2277;51.626;7.516;2022-11-30T16:48:38;8.80;99.90
4530;DHT22;2277;51.626;7.516;2022-11-30T16:51:04;8.80;99.90
4530;DHT22;2277;51.626;7.516;2022-11-30T16:53:33;8.80;99.90
4530;DHT22;2277;51.626;7.516;2022-11-30T16:55:58;8.80;99.90
4530;DHT22;2277;51.626;7.516;2022-11-30T16:58:24;8.80;99.90
4530;DHT22;2277;51.626;7.516;2022-11-30T17:00:50;8.70;99.90
4530;DHT22;2277;51.626;7.516;2022-11-30T17:03:23;8.70;99.90
4530;DHT22;2277;51.626;7.516;2022-11-30T17:05:50;8.70;99.90
4530;DHT22;2277;51.626;7.516;2022-11-30T17:08:16;8.70;99.90
4530;DHT22;2277;51.626;7.516;2022-11-30T17:10:42;8.70;99.90
4530;DHT22;2277;51.626;7.516;2022-11-30T17:13:13;8.80;99.90
4530;DHT22;2277;51.626;7.516;2022-11-30T17:15:38;8.70;99.90
4530;DHT22;2277;51.626;7.516;2022-11-30T17:18:04;8.70;99.90
4530;DHT22;2277;51.626;7.516;2022-11-30T17:20:30;8.70;99.90
4530;DHT22;2277;51.626;7.516;2022-11-30T17:22:55;8.60;99.90
4530;DHT22;2277;51.626;7.516;2022-11-30T17:25:22;8.60;99.90
4530;DHT22;2277;51.626;7.516;2022-11-30T17:27:48;8.60;99.90
4530;DHT22;2277;51.626;7.516;2022-11-30T17:30:16;8.70;99.90
4530;DHT22;2277;51.626;7.516;2022-11-30T17:32:42;8.70;99.90
4530;DHT22;2277;51.626;7.516;2022-11-30T17:35:08;8.60;99.90
4530;DHT22;2277;51.626;7.516;2022-11-30T17:37:34;8.60;99.90
4530;DHT22;2277;51.626;7.516;2022-11-30T17:40:00;8.60;99.90
4530;DHT22;2277;51.626;7.516;2022-11-30T17:42:26;8.70;99.90
4530;DHT22;2277;51.626;7.516;2022-11-30T17:44:51;8.70;99.90
4530;DHT22;2277;51.626;7.516;2022-11-30T17:47:17;8.70;99.90
4530;DHT22;2277;51.626;7.516;2022-11-30T17:49:43;8.70;99.90
4530;DHT22;2277;51.626;7.516;2022-11-30T17:52:09;8.70;99.90
4530;DHT22;2277;51.626;7.516;2022-11-30T17:54:34;8.70;99.90
4530;DHT22;2277;51.626;7.516;2022-11-30T17:57:00;8.70;99.90
4530;DHT22;2277;51.626;7.516;2022-11-30T17:59:25;8.70;99.90
4530;DHT22;2277;51.626;7.516;2022-11-30T18:01:51;8.70;99.90
4530;DHT22;2277;51.626;7.516;2022-11-30T18:04:17;8.70;99.90
4530;DHT22;2277;51.626;7.516;2022-11-30T18:06:42;8.60;99.90
4530;DHT22;2277;51.626;7.516;2022-11-30T18:09:08;8.70;99.90
4530;DHT22;2277;51.626;7.516;2022-11-30T18:11:34;8.70;99.90
4530;DHT22;2277;51.626;7.516;2022-11-30T18:14:00;8.70;99.90
4530;DHT22;2277;51.626;7.516;2022-11-30T18:16:31;8.60;99.90
4530;DHT22;2277;51.626;7.516;2022-11-30T18:18:57;8.60;99.90
4530;DHT22;2277;51.626;7.516;2022-11-30T18:21:26;8.60;99.90
4530;DHT22;2277;51.626;7.516;2022-11-30T18:23:53;8.60;99.90
4530;DHT22;2277;51.626;7.516;2022-11-30T18:26:22;8.60;99.90
4530;DHT22;2277;51.626;7.516;2022-11-30T18:28:56;8.50;99.90
4530;DHT22;2277;51.626;7.516;2022-11-30T18:31:22;8.50;99.90
4530;DHT22;2277;51.626;7.516;2022-11-30T18:33:59;8.50;99.90
4530;DHT22;2277;51.626;7.516;2022-11-30T18:36:25;8.50;99.90
4530;DHT22;2277;51.626;7.516;2022-11-30T18:38:51;8.50;99.90
4530;DHT22;2277;51.626;7.516;2022-11-30T18:41:17;8.50;99.90